createdAt,value
2018-04-28T00:00:50.727Z,3.77
2018-04-28T00:03:25.136Z,3.37
2018-04-28T00:06:00.250Z,3.13
2018-04-28T00:08:36.362Z,3.33
2018-04-28T00:11:10.614Z,3.50
2018-04-28T00:13:45.062Z,3.60
2018-04-28T00:19:17.769Z,3.57
2018-04-28T00:21:52.188Z,3.70
2018-04-28T00:24:30.087Z,3.90
2018-04-28T00:27:34.010Z,3.93
2018-04-28T00:30:08.368Z,3.50
2018-04-28T00:32:43.656Z,3.53
2018-04-28T00:35:17.972Z,3.37
2018-04-28T00:37:52.956Z,3.20
2018-04-28T00:43:22.537Z,3.40
2018-04-28T00:45:56.961Z,3.60
2018-04-28T00:48:47.856Z,3.73
2018-04-28T00:51:28.080Z,3.60
2018-04-28T00:54:18.980Z,3.80
2018-04-28T00:57:05.394Z,4.20
2018-04-28T00:59:39.756Z,3.80
2018-04-28T01:02:14.137Z,4.23
2018-04-28T01:04:49.189Z,4.10
2018-04-28T01:07:23.532Z,3.80
2018-04-28T01:10:00.920Z,3.77
2018-04-28T01:12:39.688Z,3.80
2018-04-28T01:15:21.948Z,3.83
2018-04-28T01:17:59.035Z,3.30
2018-04-28T01:20:34.266Z,3.47
2018-04-28T01:23:09.500Z,3.40
2018-04-28T01:25:50.528Z,3.60
2018-04-28T01:28:47.441Z,3.60
2018-04-28T01:31:23.697Z,3.03
2018-04-28T01:34:01.686Z,3.00
2018-04-28T01:39:29.492Z,2.67
2018-04-28T01:42:12.684Z,3.57
2018-04-28T01:44:52.560Z,3.20
2018-04-28T01:47:27.637Z,2.67
2018-04-28T01:50:05.400Z,2.90
2018-04-28T01:52:40.744Z,3.40
2018-04-28T01:55:21.807Z,3.00
2018-04-28T01:58:05.746Z,3.10
2018-04-28T02:00:43.979Z,3.10
2018-04-28T02:03:24.026Z,3.20
2018-04-28T02:09:14.547Z,3.10
2018-04-28T02:11:52.668Z,2.90
2018-04-28T02:17:47.263Z,3.30
2018-04-28T02:20:27.624Z,3.47
2018-04-28T02:23:18.540Z,3.20
2018-04-28T02:26:03.704Z,3.20
2018-04-28T02:28:46.928Z,3.60
2018-04-28T02:31:24.430Z,3.10
2018-04-28T02:37:08.668Z,3.10
2018-04-28T02:42:46.005Z,3.27
2018-04-28T02:48:20.624Z,2.70
2018-04-28T02:50:56.665Z,3.27
2018-04-28T02:53:37.789Z,2.93
2018-04-28T02:56:13.036Z,3.10
2018-04-28T02:58:56.152Z,2.93
2018-04-28T03:04:24.764Z,2.97
2018-04-28T03:10:06.653Z,2.90
2018-04-28T03:12:41.808Z,2.63
2018-04-28T03:15:16.025Z,2.70
2018-04-28T03:17:51.732Z,2.60
2018-04-28T03:20:26.001Z,3.07
2018-04-28T03:23:05.536Z,2.77
2018-04-28T03:25:40.659Z,3.03
2018-04-28T03:28:26.869Z,3.10
2018-04-28T03:31:12.643Z,2.57
2018-04-28T03:33:46.902Z,2.57
2018-04-28T03:36:25.388Z,3.10
2018-04-28T03:39:01.373Z,3.10
2018-04-28T03:41:35.475Z,2.93
2018-04-28T03:44:10.540Z,3.13
2018-04-28T03:46:49.528Z,2.57
2018-04-28T03:49:24.505Z,2.77
2018-04-28T03:52:10.152Z,3.00
2018-04-28T03:54:44.464Z,2.80
2018-04-28T03:57:40.179Z,3.23
2018-04-28T04:00:28.628Z,2.97
2018-04-28T04:03:14.729Z,2.73
2018-04-28T04:06:01.669Z,2.33
2018-04-28T04:08:42.535Z,2.73
2018-04-28T04:14:45.732Z,2.67
2018-04-28T04:20:27.032Z,2.30
2018-04-28T04:26:29.229Z,2.47
2018-04-28T04:29:29.868Z,2.97
2018-04-28T04:32:12.269Z,2.37
2018-04-28T04:37:52.944Z,2.80
2018-04-28T04:40:29.876Z,3.03
2018-04-28T04:43:09.975Z,2.37
2018-04-28T04:45:50.148Z,2.40
2018-04-28T04:48:45.255Z,2.23
2018-04-28T04:54:46.768Z,1.97
2018-04-28T04:57:27.905Z,2.03
2018-04-28T05:00:05.808Z,2.30
2018-04-28T05:02:45.041Z,2.33
2018-04-28T05:05:25.197Z,1.90
2018-04-28T05:08:08.021Z,2.13
2018-04-28T05:10:52.048Z,2.37
2018-04-28T05:13:27.192Z,2.40
2018-04-28T05:16:09.196Z,2.10
2018-04-28T05:18:47.181Z,2.80
2018-04-28T05:24:44.932Z,2.07
2018-04-28T05:27:19.898Z,2.10
2018-04-28T05:30:00.816Z,2.03
2018-04-28T05:32:41.856Z,2.43
2018-04-28T05:41:33.396Z,2.10
2018-04-28T05:47:08.400Z,2.10
2018-04-28T05:50:04.209Z,2.27
2018-04-28T05:52:54.916Z,2.17
2018-04-28T05:55:35.025Z,1.90
2018-04-28T05:58:17.625Z,2.90
2018-04-28T06:01:04.496Z,2.07
2018-04-28T06:03:45.200Z,2.50
2018-04-28T06:09:21.244Z,2.30
2018-04-28T06:12:08.260Z,2.17
2018-04-28T06:14:52.260Z,2.13
2018-04-28T06:17:42.479Z,2.20
2018-04-28T06:20:28.484Z,2.00
2018-04-28T06:23:02.994Z,2.63
2018-04-28T06:25:37.120Z,2.17
2018-04-28T06:28:12.876Z,2.60
2018-04-28T06:30:47.089Z,2.53
2018-04-28T06:33:22.236Z,1.90
2018-04-28T06:35:56.645Z,1.93
2018-04-28T06:38:30.968Z,1.70
2018-04-28T06:41:05.213Z,1.67
2018-04-28T06:43:40.320Z,1.70
2018-04-28T06:46:14.622Z,1.87
2018-04-28T06:48:48.876Z,2.00
2018-04-28T06:51:23.069Z,1.70
2018-04-28T06:53:57.501Z,1.90
2018-04-28T06:56:31.808Z,2.73
2018-04-28T06:59:05.947Z,1.67
2018-04-28T07:01:39.994Z,1.80
2018-04-28T07:04:15.182Z,2.00
2018-04-28T07:06:49.479Z,2.30
2018-04-28T07:09:24.000Z,2.00
2018-04-28T07:11:58.249Z,2.03
2018-04-28T07:14:32.458Z,2.00
2018-04-28T07:17:06.628Z,1.80
2018-04-28T07:19:40.984Z,2.33
2018-04-28T07:22:15.305Z,2.30
2018-04-28T07:24:50.548Z,1.93
2018-04-28T07:27:24.884Z,1.70
2018-04-28T07:29:59.877Z,2.20
2018-04-28T07:32:34.097Z,2.50
2018-04-28T07:35:08.159Z,1.97
2018-04-28T07:37:42.404Z,2.53
2018-04-28T07:40:16.638Z,2.50
2018-04-28T07:42:51.688Z,2.00
2018-04-28T07:45:25.908Z,2.30
2018-04-28T07:48:00.228Z,2.30
2018-04-28T07:50:36.089Z,2.30
2018-04-28T07:53:10.335Z,2.57
2018-04-28T07:55:44.508Z,2.60
2018-04-28T07:58:18.591Z,2.00
2018-04-28T08:00:52.840Z,2.40
2018-04-28T08:03:27.044Z,2.13
2018-04-28T08:06:01.140Z,2.13
2018-04-28T08:08:35.391Z,2.10
2018-04-28T08:11:09.508Z,2.43
2018-04-28T08:13:43.837Z,2.90
2018-04-28T08:16:18.184Z,2.23
2018-04-28T08:18:52.351Z,2.07
2018-04-28T08:21:26.543Z,2.50
2018-04-28T08:24:00.788Z,1.83
2018-04-28T08:26:35.064Z,2.57
2018-04-28T08:29:09.525Z,2.67
2018-04-28T08:31:44.439Z,4.23
2018-04-28T08:34:18.776Z,3.00
2018-04-28T08:36:53.014Z,2.80
2018-04-28T08:39:28.164Z,2.50
2018-04-28T08:42:02.399Z,2.47
2018-04-28T08:44:36.616Z,2.20
2018-04-28T08:47:10.809Z,2.53
2018-04-28T08:49:45.044Z,2.77
2018-04-28T08:52:20.028Z,2.40
2018-04-28T08:54:54.116Z,2.60
2018-04-28T08:57:28.333Z,2.80
2018-04-28T09:00:14.461Z,2.50
2018-04-28T09:02:48.707Z,2.23
2018-04-28T09:05:22.852Z,2.63
2018-04-28T09:07:57.206Z,2.17
2018-04-28T09:10:31.461Z,3.13
2018-04-28T09:13:07.743Z,3.00
2018-04-28T09:15:42.100Z,2.50
2018-04-28T09:18:16.516Z,2.40
2018-04-28T09:20:51.840Z,2.53
2018-04-28T09:23:27.822Z,3.17
2018-04-28T09:26:02.340Z,2.27
2018-04-28T09:28:37.480Z,2.10
2018-04-28T09:31:12.000Z,2.80
2018-04-28T09:33:46.334Z,2.60
2018-04-28T09:36:20.821Z,2.40
2018-04-28T09:38:55.372Z,2.93
2018-04-28T09:41:29.878Z,2.40
2018-04-28T09:44:05.117Z,2.57
2018-04-28T09:46:40.255Z,2.13
2018-04-28T09:49:15.560Z,2.20
2018-04-28T09:51:49.847Z,2.07
2018-04-28T09:54:24.324Z,2.33
2018-04-28T09:56:58.644Z,2.00
2018-04-28T09:59:33.187Z,2.10
2018-04-28T10:02:13.293Z,2.30
2018-04-28T10:04:47.646Z,1.97
2018-04-28T10:07:21.937Z,1.90
2018-04-28T10:09:56.513Z,2.30
2018-04-28T10:12:30.795Z,2.00
2018-04-28T10:15:05.081Z,2.10
2018-04-28T10:17:39.461Z,1.93
2018-04-28T10:20:14.113Z,1.80
2018-04-28T10:22:48.391Z,1.80
2018-04-28T10:25:22.709Z,2.13
2018-04-28T10:27:57.052Z,1.80
2018-04-28T10:30:31.484Z,2.00
2018-04-28T10:33:05.804Z,1.80
2018-04-28T10:35:40.316Z,1.90
2018-04-28T10:38:14.665Z,2.00
2018-04-28T10:40:49.124Z,2.23
2018-04-28T10:43:23.416Z,1.90
2018-04-28T10:45:58.341Z,2.10
2018-04-28T10:48:32.605Z,2.20
2018-04-28T10:51:07.020Z,2.17
2018-04-28T10:53:42.338Z,2.17
2018-04-28T10:56:16.700Z,2.10
2018-04-28T10:58:50.932Z,2.07
2018-04-28T11:01:25.185Z,2.70
2018-04-28T11:03:59.544Z,2.27
2018-04-28T11:06:33.820Z,2.30
2018-04-28T11:09:08.260Z,2.07
2018-04-28T11:11:42.704Z,2.30
2018-04-28T11:14:16.959Z,2.20
2018-04-28T11:16:52.272Z,2.10
2018-04-28T11:19:26.649Z,2.03
2018-04-28T11:22:00.903Z,1.90
2018-04-28T11:24:35.636Z,2.00
2018-04-28T11:27:10.188Z,2.00
2018-04-28T11:29:44.548Z,2.27
2018-04-28T11:32:18.879Z,2.17
2018-04-28T11:34:53.801Z,2.33
2018-04-28T11:37:28.053Z,2.57
2018-04-28T11:40:02.573Z,1.93
2018-04-28T11:42:37.108Z,1.90
2018-04-28T11:45:11.382Z,2.10
2018-04-28T11:47:45.628Z,1.83
2018-04-28T11:50:20.224Z,2.70
2018-04-28T11:52:54.668Z,2.00
2018-04-28T11:55:29.109Z,2.00
2018-04-28T11:58:03.450Z,2.17
2018-04-28T12:00:37.912Z,2.77
2018-04-28T12:03:12.352Z,1.67
2018-04-28T12:05:47.619Z,1.80
2018-04-28T12:08:22.113Z,2.43
2018-04-28T12:10:56.716Z,2.37
2018-04-28T12:13:31.864Z,2.47
2018-04-28T12:16:06.281Z,2.20
2018-04-28T12:18:40.618Z,2.63
2018-04-28T12:21:14.836Z,2.47
2018-04-28T12:23:49.341Z,2.30
2018-04-28T12:26:23.856Z,2.07
2018-04-28T12:28:58.196Z,2.80
2018-04-28T12:31:32.924Z,2.37
2018-04-28T12:34:07.528Z,2.63
2018-04-28T12:36:42.687Z,2.20
2018-04-28T12:39:17.220Z,2.50
2018-04-28T12:41:51.640Z,2.27
2018-04-28T12:44:26.064Z,2.00
2018-04-28T12:47:00.425Z,2.20
2018-04-28T12:49:34.683Z,1.90
2018-04-28T12:52:09.832Z,2.37
2018-04-28T12:54:44.335Z,2.40
2018-04-28T12:57:19.472Z,1.97
2018-04-28T12:59:54.008Z,2.53
2018-04-28T13:02:29.020Z,2.30
2018-04-28T13:05:03.938Z,2.40
2018-04-28T13:07:39.529Z,2.23
2018-04-28T13:10:14.021Z,2.17
2018-04-28T13:12:48.480Z,2.30
2018-04-28T13:15:23.729Z,1.90
2018-04-28T13:17:58.110Z,2.03
2018-04-28T13:20:32.413Z,2.10
2018-04-28T13:23:07.077Z,2.63
2018-04-28T13:25:42.108Z,2.30
2018-04-28T13:28:16.436Z,1.77
2018-04-28T13:30:51.620Z,1.90
2018-04-28T13:33:25.997Z,1.80
2018-04-28T13:36:00.508Z,2.20
2018-04-28T13:38:34.828Z,1.67
2018-04-28T13:41:09.210Z,2.10
2018-04-28T13:43:43.572Z,2.07
2018-04-28T13:46:18.069Z,1.67
2018-04-28T13:48:52.320Z,1.90
2018-04-28T13:51:26.679Z,1.53
2018-04-28T13:54:01.133Z,1.80
2018-04-28T13:56:35.476Z,1.40
2018-04-28T13:59:10.005Z,1.50
2018-04-28T14:01:44.412Z,1.67
2018-04-28T14:04:18.773Z,1.50
2018-04-28T14:06:53.233Z,1.90
2018-04-28T14:09:28.296Z,1.90
2018-04-28T14:12:03.514Z,1.40
2018-04-28T14:14:37.860Z,1.60
2018-04-28T14:17:12.283Z,1.30
2018-04-28T14:19:46.689Z,1.63
2018-04-28T14:22:21.112Z,1.23
2018-04-28T14:24:55.634Z,1.30
2018-04-28T14:27:29.860Z,1.70
2018-04-28T14:30:04.128Z,1.50
2018-04-28T14:32:38.500Z,1.50
2018-04-28T14:35:12.792Z,1.33
2018-04-28T14:37:47.192Z,1.77
2018-04-28T14:40:22.380Z,1.30
2018-04-28T14:42:57.088Z,1.50
2018-04-28T14:45:31.367Z,1.30
2018-04-28T14:48:05.728Z,1.17
2018-04-28T14:50:40.093Z,1.30
2018-04-28T14:53:14.361Z,1.47
2018-04-28T14:55:48.757Z,1.30
2018-04-28T14:58:23.068Z,1.50
2018-04-28T15:00:58.236Z,1.37
2018-04-28T15:03:32.660Z,1.60
2018-04-28T15:06:07.064Z,1.60
2018-04-28T15:08:41.402Z,1.20
2018-04-28T15:11:15.935Z,1.43
2018-04-28T15:13:50.431Z,1.20
2018-04-28T15:16:26.281Z,1.50
2018-04-28T15:19:00.728Z,1.47
2018-04-28T15:21:35.096Z,1.70
2018-04-28T15:24:10.148Z,1.30
2018-04-28T15:26:44.706Z,1.27
2018-04-28T15:29:19.044Z,1.27
2018-04-28T15:31:53.320Z,1.20
2018-04-28T15:34:27.700Z,1.33
2018-04-28T15:37:02.195Z,1.43
2018-04-28T15:39:36.593Z,1.47
2018-04-28T15:42:11.016Z,1.40
2018-04-28T15:44:46.157Z,1.40
2018-04-28T15:47:21.308Z,1.50
2018-04-28T15:49:55.754Z,1.50
2018-04-28T15:52:30.813Z,1.60
2018-04-28T15:55:06.277Z,1.43
2018-04-28T15:57:40.579Z,1.20
2018-04-28T16:00:14.883Z,1.40
2018-04-28T16:02:49.298Z,1.37
2018-04-28T16:05:23.773Z,1.63
2018-04-28T16:08:00.616Z,1.57
2018-04-28T16:10:35.004Z,1.67
2018-04-28T16:13:09.309Z,1.47
2018-04-28T16:15:43.787Z,1.40
2018-04-28T16:18:18.143Z,1.60
2018-04-28T16:20:52.580Z,1.60
2018-04-28T16:23:27.035Z,1.80
2018-04-28T16:26:02.048Z,1.80
2018-04-28T16:28:36.589Z,1.80
2018-04-28T16:31:11.016Z,1.13
2018-04-28T16:33:45.818Z,1.83
2018-04-28T16:36:20.280Z,1.40
2018-04-28T16:38:54.577Z,1.80
2018-04-28T16:41:29.041Z,1.93
2018-04-28T16:44:03.540Z,1.40
2018-04-28T16:46:37.812Z,1.90
2018-04-28T16:49:12.124Z,2.13
2018-04-28T16:51:46.457Z,1.53
2018-04-28T16:54:20.980Z,1.70
2018-04-28T16:56:55.392Z,1.30
2018-04-28T16:59:30.438Z,1.60
2018-04-28T17:02:05.513Z,1.40
2018-04-28T17:04:39.930Z,1.90
2018-04-28T17:07:14.400Z,1.67
2018-04-28T17:09:48.723Z,1.33
2018-04-28T17:12:23.552Z,1.90
2018-04-28T17:14:58.128Z,1.90
2018-04-28T17:17:44.280Z,1.70
2018-04-28T17:20:18.948Z,1.17
2018-04-28T17:22:53.218Z,1.67
2018-04-28T17:25:28.301Z,1.47
2018-04-28T17:28:02.725Z,1.40
2018-04-28T17:30:38.697Z,3.40
2018-04-28T17:33:13.090Z,1.57
2018-04-28T17:35:47.400Z,1.90
2018-04-28T17:38:21.717Z,1.33
2018-04-28T17:40:56.038Z,1.50
2018-04-28T17:43:30.352Z,1.53
2018-04-28T17:46:04.830Z,1.50
2018-04-28T17:48:39.126Z,1.90
2018-04-28T17:51:13.643Z,1.73
2018-04-28T17:53:48.062Z,1.83
2018-04-28T17:56:22.356Z,1.70
2018-04-28T17:58:56.873Z,1.60
2018-04-28T18:01:31.204Z,1.90
2018-04-28T18:04:05.565Z,2.00
2018-04-28T18:06:39.951Z,1.70
2018-04-28T18:09:14.337Z,1.93
2018-04-28T18:11:48.765Z,1.80
2018-04-28T18:14:23.085Z,1.70
2018-04-28T18:16:57.492Z,1.70
2018-04-28T18:19:31.837Z,1.80
2018-04-28T18:22:06.873Z,1.83
2018-04-28T18:24:41.416Z,1.90
2018-04-28T18:27:15.841Z,2.00
2018-04-28T18:29:50.153Z,1.90
2018-04-28T18:32:24.547Z,1.77
2018-04-28T18:34:59.237Z,1.70
2018-04-28T18:37:33.628Z,1.97
2018-04-28T18:40:08.079Z,1.93
2018-04-28T18:42:42.377Z,2.10
2018-04-28T18:45:16.669Z,2.30
2018-04-28T18:47:51.058Z,3.40
2018-04-28T18:50:26.129Z,4.73
2018-04-28T18:53:00.576Z,4.20
2018-04-28T18:55:34.872Z,4.60
2018-04-28T18:58:09.256Z,8.20
2018-04-28T19:00:43.693Z,5.80
2018-04-28T19:03:18.258Z,12.50
2018-04-28T19:05:52.543Z,8.40
2018-04-28T19:08:26.874Z,6.00
2018-04-28T19:11:01.203Z,6.23
2018-04-28T19:13:35.537Z,5.57
2018-04-28T19:16:09.950Z,5.10
2018-04-28T19:18:44.313Z,4.93
2018-04-28T19:21:19.384Z,3.83
2018-04-28T19:23:53.721Z,4.13
2018-04-28T19:26:28.944Z,3.53
2018-04-28T19:29:04.092Z,4.10
2018-04-28T19:31:39.920Z,4.00
2018-04-28T19:34:14.283Z,4.10
2018-04-28T19:36:49.401Z,3.70
2018-04-28T19:39:23.707Z,4.07
2018-04-28T19:41:58.125Z,3.63
2018-04-28T19:44:32.536Z,3.83
2018-04-28T19:47:07.091Z,3.20
2018-04-28T19:49:41.490Z,3.27
2018-04-28T19:52:15.804Z,3.60
2018-04-28T19:54:50.164Z,6.03
2018-04-28T19:57:24.657Z,6.43
2018-04-28T19:59:59.076Z,6.23
2018-04-28T20:02:33.390Z,4.30
2018-04-28T20:05:07.696Z,5.40
2018-04-28T20:07:42.239Z,4.97
2018-04-28T20:10:16.588Z,5.67
2018-04-28T20:12:51.073Z,4.87
2018-04-28T20:15:25.497Z,4.83
2018-04-28T20:17:59.812Z,4.63
2018-04-28T20:20:34.131Z,4.17
2018-04-28T20:23:20.334Z,4.23
2018-04-28T20:25:54.653Z,4.10
2018-04-28T20:28:28.968Z,3.80
2018-04-28T20:31:04.084Z,4.23
2018-04-28T20:33:38.412Z,4.20
2018-04-28T20:36:13.437Z,3.60
2018-04-28T20:38:48.013Z,4.00
2018-04-28T20:41:22.397Z,3.80
2018-04-28T20:43:56.827Z,3.83
2018-04-28T20:46:31.130Z,3.93
2018-04-28T20:49:05.412Z,3.87
2018-04-28T20:51:39.893Z,3.17
2018-04-28T20:54:14.339Z,3.07
2018-04-28T20:56:49.528Z,3.87
2018-04-28T20:59:23.968Z,3.20
2018-04-28T21:01:58.381Z,3.63
2018-04-28T21:04:32.884Z,4.47
2018-04-28T21:07:07.333Z,5.50
2018-04-28T21:09:41.949Z,5.30
2018-04-28T21:12:16.373Z,5.40
2018-04-28T21:14:50.877Z,3.50
2018-04-28T21:17:25.307Z,3.67
2018-04-28T21:20:00.468Z,4.00
2018-04-28T21:22:34.757Z,4.90
2018-04-28T21:25:10.030Z,5.20
2018-04-28T21:27:44.553Z,5.10
2018-04-28T21:30:18.958Z,4.10
2018-04-28T21:32:53.258Z,4.73
2018-04-28T21:35:27.572Z,4.97
2018-04-28T21:38:01.911Z,4.07
2018-04-28T21:40:36.232Z,4.87
2018-04-28T21:43:10.625Z,5.27
2018-04-28T21:45:44.974Z,4.80
2018-04-28T21:48:19.380Z,4.37
2018-04-28T21:50:54.539Z,4.23
2018-04-28T21:53:29.042Z,3.80
2018-04-28T21:56:03.513Z,4.63
2018-04-28T21:58:37.777Z,4.90
2018-04-28T22:01:12.211Z,5.43
2018-04-28T22:03:46.732Z,4.30
2018-04-28T22:06:21.082Z,4.50
2018-04-28T22:08:55.644Z,4.33
2018-04-28T22:11:30.692Z,4.40
2018-04-28T22:14:05.001Z,4.87
2018-04-28T22:16:39.448Z,4.37
2018-04-28T22:19:13.758Z,3.80
2018-04-28T22:21:48.204Z,4.03
2018-04-28T22:24:22.592Z,4.67
2018-04-28T22:26:57.740Z,4.30
2018-04-28T22:29:32.109Z,3.93
2018-04-28T22:32:06.472Z,4.10
2018-04-28T22:34:40.786Z,4.27
2018-04-28T22:37:15.063Z,4.00
2018-04-28T22:39:49.464Z,4.50
2018-04-28T22:42:23.747Z,4.53
2018-04-28T22:44:58.064Z,4.90
2018-04-28T22:47:33.189Z,5.07
2018-04-28T22:50:07.550Z,5.10
2018-04-28T22:52:41.965Z,4.77
2018-04-28T22:55:16.353Z,4.60
2018-04-28T22:57:50.795Z,4.43
2018-04-28T23:00:25.165Z,4.93
2018-04-28T23:02:59.511Z,5.20
2018-04-28T23:05:33.953Z,5.53
2018-04-28T23:08:08.972Z,4.90
2018-04-28T23:10:44.225Z,5.53
2018-04-28T23:13:18.736Z,5.10
2018-04-28T23:15:53.269Z,5.10
2018-04-28T23:18:27.781Z,5.00
2018-04-28T23:21:02.094Z,5.40
2018-04-28T23:23:36.531Z,4.77
2018-04-28T23:26:10.876Z,5.00
2018-04-28T23:28:45.196Z,4.87
2018-04-28T23:31:19.612Z,5.43
2018-04-28T23:33:53.882Z,5.30
2018-04-28T23:36:28.425Z,5.10
2018-04-28T23:39:02.738Z,5.17
2018-04-28T23:41:37.181Z,4.70
2018-04-28T23:44:11.493Z,4.57
2018-04-28T23:46:45.896Z,4.87
2018-04-28T23:49:20.148Z,3.37
2018-04-28T23:51:54.509Z,3.63
2018-04-28T23:54:28.908Z,4.43
2018-04-28T23:57:03.206Z,4.20
2018-04-28T23:59:38.408Z,5.07
